sensor_id;sensor_type;location;lat;lon;timestamp;P1;durP1;ratioP1;P2;durP2;ratioP2
67352;SDS011;54238;52.278;21.056;2023-04-25T00:02:54;15.00;;;12.20;;
67352;SDS011;54238;52.278;21.056;2023-04-25T00:05:27;14.30;;;11.90;;
67352;SDS011;54238;52.278;21.056;2023-04-25T00:07:57;15.40;;;12.00;;
67352;SDS011;54238;52.278;21.056;2023-04-25T00:10:25;14.70;;;11.70;;
67352;SDS011;54238;52.278;21.056;2023-04-25T00:12:52;18.50;;;13.90;;
67352;SDS011;54238;52.278;21.056;2023-04-25T00:15:23;20.10;;;13.80;;
67352;SDS011;54238;52.278;21.056;2023-04-25T00:17:51;18.80;;;14.20;;
67352;SDS011;54238;52.278;21.056;2023-04-25T00:20:22;15.70;;;13.10;;
67352;SDS011;54238;52.278;21.056;2023-04-25T00:22:51;17.90;;;12.90;;
67352;SDS011;54238;52.278;21.056;2023-04-25T00:25:31;17.70;;;13.00;;
67352;SDS011;54238;52.278;21.056;2023-04-25T00:27:58;18.50;;;12.10;;
67352;SDS011;54238;52.278;21.056;2023-04-25T00:33:29;18.70;;;13.40;;
67352;SDS011;54238;52.278;21.056;2023-04-25T00:35:59;19.30;;;14.70;;
67352;SDS011;54238;52.278;21.056;2023-04-25T00:38:30;16.60;;;12.40;;
67352;SDS011;54238;52.278;21.056;2023-04-25T00:40:57;20.00;;;14.20;;
67352;SDS011;54238;52.278;21.056;2023-04-25T00:43:27;15.10;;;11.80;;
67352;SDS011;54238;52.278;21.056;2023-04-25T00:45:59;21.90;;;15.50;;
67352;SDS011;54238;52.278;21.056;2023-04-25T00:48:29;17.40;;;13.20;;
67352;SDS011;54238;52.278;21.056;2023-04-25T00:50:59;19.10;;;14.50;;
67352;SDS011;54238;52.278;21.056;2023-04-25T00:53:30;15.80;;;13.30;;
67352;SDS011;54238;52.278;21.056;2023-04-25T00:55:59;20.90;;;14.90;;
67352;SDS011;54238;52.278;21.056;2023-04-25T00:58:26;21.50;;;15.00;;
67352;SDS011;54238;52.278;21.056;2023-04-25T01:00:57;19.90;;;13.60;;
67352;SDS011;54238;52.278;21.056;2023-04-25T01:03:29;18.10;;;15.00;;
67352;SDS011;54238;52.278;21.056;2023-04-25T01:06:04;18.70;;;12.50;;
67352;SDS011;54238;52.278;21.056;2023-04-25T01:08:32;20.90;;;16.20;;
67352;SDS011;54238;52.278;21.056;2023-04-25T01:11:02;19.20;;;14.70;;
67352;SDS011;54238;52.278;21.056;2023-04-25T01:13:35;20.40;;;15.60;;
67352;SDS011;54238;52.278;21.056;2023-04-25T01:16:03;25.80;;;17.40;;
67352;SDS011;54238;52.278;21.056;2023-04-25T01:18:31;28.00;;;19.60;;
67352;SDS011;54238;52.278;21.056;2023-04-25T01:21:12;23.00;;;15.70;;
67352;SDS011;54238;52.278;21.056;2023-04-25T01:23:45;21.00;;;15.00;;
67352;SDS011;54238;52.278;21.056;2023-04-25T01:26:15;22.30;;;17.40;;
67352;SDS011;54238;52.278;21.056;2023-04-25T01:28:44;19.20;;;15.70;;
67352;SDS011;54238;52.278;21.056;2023-04-25T01:31:12;23.40;;;16.20;;
67352;SDS011;54238;52.278;21.056;2023-04-25T01:33:46;24.80;;;18.10;;
67352;SDS011;54238;52.278;21.056;2023-04-25T01:36:21;24.00;;;18.80;;
67352;SDS011;54238;52.278;21.056;2023-04-25T01:38:52;25.10;;;18.50;;
67352;SDS011;54238;52.278;21.056;2023-04-25T01:41:19;19.50;;;14.80;;
67352;SDS011;54238;52.278;21.056;2023-04-25T01:43:49;23.10;;;15.10;;
67352;SDS011;54238;52.278;21.056;2023-04-25T01:46:16;17.50;;;14.40;;
67352;SDS011;54238;52.278;21.056;2023-04-25T01:48:46;21.10;;;15.00;;
67352;SDS011;54238;52.278;21.056;2023-04-25T01:51:13;24.40;;;16.10;;
67352;SDS011;54238;52.278;21.056;2023-04-25T01:53:43;20.50;;;15.90;;
67352;SDS011;54238;52.278;21.056;2023-04-25T01:56:13;21.10;;;14.00;;
67352;SDS011;54238;52.278;21.056;2023-04-25T01:58:42;14.90;;;13.30;;
67352;SDS011;54238;52.278;21.056;2023-04-25T02:01:15;21.20;;;13.40;;
67352;SDS011;54238;52.278;21.056;2023-04-25T02:03:45;17.80;;;14.10;;
67352;SDS011;54238;52.278;21.056;2023-04-25T02:06:12;18.50;;;14.80;;
67352;SDS011;54238;52.278;21.056;2023-04-25T02:08:39;19.80;;;15.00;;
67352;SDS011;54238;52.278;21.056;2023-04-25T02:11:09;16.80;;;13.10;;
67352;SDS011;54238;52.278;21.056;2023-04-25T02:16:36;19.20;;;14.70;;
67352;SDS011;54238;52.278;21.056;2023-04-25T02:19:03;18.80;;;15.00;;
67352;SDS011;54238;52.278;21.056;2023-04-25T02:21:32;17.70;;;13.50;;
67352;SDS011;54238;52.278;21.056;2023-04-25T02:24:03;17.90;;;15.10;;
67352;SDS011;54238;52.278;21.056;2023-04-25T02:26:31;19.00;;;14.40;;
67352;SDS011;54238;52.278;21.056;2023-04-25T02:28:58;17.50;;;14.10;;
67352;SDS011;54238;52.278;21.056;2023-04-25T02:31:30;17.90;;;13.90;;
67352;SDS011;54238;52.278;21.056;2023-04-25T02:34:01;14.50;;;12.40;;
67352;SDS011;54238;52.278;21.056;2023-04-25T02:36:34;20.30;;;13.90;;
67352;SDS011;54238;52.278;21.056;2023-04-25T02:39:02;15.50;;;13.20;;
67352;SDS011;54238;52.278;21.056;2023-04-25T02:41:35;17.50;;;13.40;;
67352;SDS011;54238;52.278;21.056;2023-04-25T02:44:05;16.60;;;12.60;;
67352;SDS011;54238;52.278;21.056;2023-04-25T02:46:34;22.40;;;14.60;;
67352;SDS011;54238;52.278;21.056;2023-04-25T02:49:02;20.90;;;13.70;;
67352;SDS011;54238;52.278;21.056;2023-04-25T02:51:37;16.80;;;12.80;;
67352;SDS011;54238;52.278;21.056;2023-04-25T02:54:06;17.50;;;13.50;;
67352;SDS011;54238;52.278;21.056;2023-04-25T02:56:33;15.10;;;13.30;;
67352;SDS011;54238;52.278;21.056;2023-04-25T02:59:05;20.90;;;15.70;;
67352;SDS011;54238;52.278;21.056;2023-04-25T03:01:32;15.90;;;11.40;;
67352;SDS011;54238;52.278;21.056;2023-04-25T03:04:02;18.60;;;10.80;;
67352;SDS011;54238;52.278;21.056;2023-04-25T03:06:32;20.40;;;13.50;;
67352;SDS011;54238;52.278;21.056;2023-04-25T03:09:03;19.40;;;13.10;;
67352;SDS011;54238;52.278;21.056;2023-04-25T03:11:31;16.30;;;12.70;;
67352;SDS011;54238;52.278;21.056;2023-04-25T03:14:00;17.00;;;12.90;;
67352;SDS011;54238;52.278;21.056;2023-04-25T03:16:30;13.60;;;11.60;;
67352;SDS011;54238;52.278;21.056;2023-04-25T03:18:57;12.50;;;10.70;;
67352;SDS011;54238;52.278;21.056;2023-04-25T03:21:26;12.20;;;9.80;;
67352;SDS011;54238;52.278;21.056;2023-04-25T03:23:54;13.50;;;9.80;;
67352;SDS011;54238;52.278;21.056;2023-04-25T03:26:24;14.60;;;10.90;;
67352;SDS011;54238;52.278;21.056;2023-04-25T03:28:54;20.20;;;13.10;;
67352;SDS011;54238;52.278;21.056;2023-04-25T03:31:26;15.10;;;9.90;;
67352;SDS011;54238;52.278;21.056;2023-04-25T03:33:53;15.10;;;12.00;;
67352;SDS011;54238;52.278;21.056;2023-04-25T03:36:21;16.00;;;10.60;;
67352;SDS011;54238;52.278;21.056;2023-04-25T03:38:51;11.40;;;9.80;;
67352;SDS011;54238;52.278;21.056;2023-04-25T03:41:18;14.30;;;11.70;;
67352;SDS011;54238;52.278;21.056;2023-04-25T03:43:48;15.20;;;11.50;;
67352;SDS011;54238;52.278;21.056;2023-04-25T03:46:16;16.60;;;11.80;;
67352;SDS011;54238;52.278;21.056;2023-04-25T03:48:43;22.30;;;11.90;;
67352;SDS011;54238;52.278;21.056;2023-04-25T03:51:11;12.70;;;10.00;;
67352;SDS011;54238;52.278;21.056;2023-04-25T03:53:40;15.70;;;9.90;;
67352;SDS011;54238;52.278;21.056;2023-04-25T03:56:12;14.10;;;11.40;;
67352;SDS011;54238;52.278;21.056;2023-04-25T03:58:39;14.70;;;11.20;;
67352;SDS011;54238;52.278;21.056;2023-04-25T04:01:11;15.50;;;11.30;;
67352;SDS011;54238;52.278;21.056;2023-04-25T04:03:38;15.70;;;10.50;;
67352;SDS011;54238;52.278;21.056;2023-04-25T04:06:09;13.30;;;10.10;;
67352;SDS011;54238;52.278;21.056;2023-04-25T04:08:44;14.60;;;10.80;;
67352;SDS011;54238;52.278;21.056;2023-04-25T04:11:16;14.30;;;10.80;;
67352;SDS011;54238;52.278;21.056;2023-04-25T04:13:46;13.70;;;9.80;;
67352;SDS011;54238;52.278;21.056;2023-04-25T04:16:16;16.30;;;9.10;;
67352;SDS011;54238;52.278;21.056;2023-04-25T04:18:46;10.40;;;8.90;;
67352;SDS011;54238;52.278;21.056;2023-04-25T04:21:14;12.30;;;9.80;;
67352;SDS011;54238;52.278;21.056;2023-04-25T04:23:43;16.20;;;10.20;;
67352;SDS011;54238;52.278;21.056;2023-04-25T04:26:16;13.50;;;9.40;;
67352;SDS011;54238;52.278;21.056;2023-04-25T04:28:43;14.00;;;9.90;;
67352;SDS011;54238;52.278;21.056;2023-04-25T04:31:13;16.40;;;11.00;;
67352;SDS011;54238;52.278;21.056;2023-04-25T04:33:46;15.80;;;9.90;;
67352;SDS011;54238;52.278;21.056;2023-04-25T04:36:16;14.60;;;10.60;;
67352;SDS011;54238;52.278;21.056;2023-04-25T04:38:55;13.80;;;10.00;;
67352;SDS011;54238;52.278;21.056;2023-04-25T04:41:25;18.00;;;11.00;;
67352;SDS011;54238;52.278;21.056;2023-04-25T04:43:52;17.40;;;9.40;;
67352;SDS011;54238;52.278;21.056;2023-04-25T04:46:25;12.70;;;9.40;;
67352;SDS011;54238;52.278;21.056;2023-04-25T04:48:52;10.30;;;8.30;;
67352;SDS011;54238;52.278;21.056;2023-04-25T04:51:25;10.90;;;9.50;;
67352;SDS011;54238;52.278;21.056;2023-04-25T04:53:54;16.10;;;10.00;;
67352;SDS011;54238;52.278;21.056;2023-04-25T04:56:27;12.60;;;9.40;;
67352;SDS011;54238;52.278;21.056;2023-04-25T04:59:02;14.60;;;9.60;;
67352;SDS011;54238;52.278;21.056;2023-04-25T05:01:29;13.10;;;9.90;;
67352;SDS011;54238;52.278;21.056;2023-04-25T05:03:57;11.30;;;8.60;;
67352;SDS011;54238;52.278;21.056;2023-04-25T05:06:27;11.20;;;9.30;;
67352;SDS011;54238;52.278;21.056;2023-04-25T05:08:56;14.90;;;8.50;;
67352;SDS011;54238;52.278;21.056;2023-04-25T05:11:26;16.50;;;10.30;;
67352;SDS011;54238;52.278;21.056;2023-04-25T05:13:56;18.00;;;9.70;;
67352;SDS011;54238;52.278;21.056;2023-04-25T05:16:23;15.70;;;9.90;;
67352;SDS011;54238;52.278;21.056;2023-04-25T05:18:52;13.70;;;8.50;;
67352;SDS011;54238;52.278;21.056;2023-04-25T05:21:22;10.80;;;9.20;;
67352;SDS011;54238;52.278;21.056;2023-04-25T05:23:51;13.00;;;9.70;;
67352;SDS011;54238;52.278;21.056;2023-04-25T05:26:24;12.00;;;8.90;;
67352;SDS011;54238;52.278;21.056;2023-04-25T05:28:57;11.90;;;9.80;;
67352;SDS011;54238;52.278;21.056;2023-04-25T05:31:27;11.20;;;9.30;;
67352;SDS011;54238;52.278;21.056;2023-04-25T05:33:57;10.70;;;9.30;;
67352;SDS011;54238;52.278;21.056;2023-04-25T05:36:27;10.50;;;7.70;;
67352;SDS011;54238;52.278;21.056;2023-04-25T05:38:59;10.90;;;8.70;;
67352;SDS011;54238;52.278;21.056;2023-04-25T05:41:26;14.50;;;9.60;;
67352;SDS011;54238;52.278;21.056;2023-04-25T05:43:55;11.00;;;9.70;;
67352;SDS011;54238;52.278;21.056;2023-04-25T05:46:24;8.60;;;7.00;;
67352;SDS011;54238;52.278;21.056;2023-04-25T05:48:54;11.50;;;10.10;;
67352;SDS011;54238;52.278;21.056;2023-04-25T05:51:23;10.20;;;8.20;;
67352;SDS011;54238;52.278;21.056;2023-04-25T05:53:53;10.30;;;8.50;;
67352;SDS011;54238;52.278;21.056;2023-04-25T05:56:22;10.60;;;9.40;;
67352;SDS011;54238;52.278;21.056;2023-04-25T05:58:49;12.10;;;9.40;;
67352;SDS011;54238;52.278;21.056;2023-04-25T06:01:19;13.50;;;9.20;;
67352;SDS011;54238;52.278;21.056;2023-04-25T06:03:48;11.70;;;9.50;;
67352;SDS011;54238;52.278;21.056;2023-04-25T06:06:18;13.00;;;8.70;;
67352;SDS011;54238;52.278;21.056;2023-04-25T06:08:48;10.80;;;9.40;;
67352;SDS011;54238;52.278;21.056;2023-04-25T06:11:18;12.00;;;9.70;;
67352;SDS011;54238;52.278;21.056;2023-04-25T06:13:52;10.50;;;9.50;;
67352;SDS011;54238;52.278;21.056;2023-04-25T06:16:21;12.40;;;11.10;;
67352;SDS011;54238;52.278;21.056;2023-04-25T06:18:51;12.70;;;8.90;;
67352;SDS011;54238;52.278;21.056;2023-04-25T06:21:18;9.20;;;8.20;;
67352;SDS011;54238;52.278;21.056;2023-04-25T06:23:47;9.00;;;8.00;;
67352;SDS011;54238;52.278;21.056;2023-04-25T06:26:32;9.30;;;8.30;;
67352;SDS011;54238;52.278;21.056;2023-04-25T06:29:03;13.20;;;8.60;;
67352;SDS011;54238;52.278;21.056;2023-04-25T06:31:40;9.70;;;7.90;;
67352;SDS011;54238;52.278;21.056;2023-04-25T06:34:09;9.70;;;8.70;;
67352;SDS011;54238;52.278;21.056;2023-04-25T06:36:39;9.50;;;8.60;;
67352;SDS011;54238;52.278;21.056;2023-04-25T06:39:11;10.50;;;9.40;;
67352;SDS011;54238;52.278;21.056;2023-04-25T06:42:01;11.00;;;8.80;;
67352;SDS011;54238;52.278;21.056;2023-04-25T06:44:31;9.80;;;8.70;;
67352;SDS011;54238;52.278;21.056;2023-04-25T06:47:00;10.80;;;9.30;;
67352;SDS011;54238;52.278;21.056;2023-04-25T06:49:28;11.30;;;9.00;;
67352;SDS011;54238;52.278;21.056;2023-04-25T06:51:55;9.80;;;8.60;;
67352;SDS011;54238;52.278;21.056;2023-04-25T06:54:22;11.30;;;10.10;;
67352;SDS011;54238;52.278;21.056;2023-04-25T06:56:53;14.00;;;11.40;;
67352;SDS011;54238;52.278;21.056;2023-04-25T06:59:22;12.40;;;9.00;;
67352;SDS011;54238;52.278;21.056;2023-04-25T07:01:52;10.90;;;8.50;;
67352;SDS011;54238;52.278;21.056;2023-04-25T07:04:22;12.00;;;9.40;;
67352;SDS011;54238;52.278;21.056;2023-04-25T07:06:57;15.90;;;11.20;;
67352;SDS011;54238;52.278;21.056;2023-04-25T07:09:30;21.20;;;11.40;;
67352;SDS011;54238;52.278;21.056;2023-04-25T07:12:00;16.00;;;12.60;;
67352;SDS011;54238;52.278;21.056;2023-04-25T07:14:28;14.30;;;9.60;;
67352;SDS011;54238;52.278;21.056;2023-04-25T07:16:55;15.10;;;11.20;;
67352;SDS011;54238;52.278;21.056;2023-04-25T07:19:23;11.70;;;9.30;;
67352;SDS011;54238;52.278;21.056;2023-04-25T07:21:56;12.50;;;10.40;;
67352;SDS011;54238;52.278;21.056;2023-04-25T07:24:25;11.90;;;10.00;;
67352;SDS011;54238;52.278;21.056;2023-04-25T07:26:58;8.80;;;7.90;;
67352;SDS011;54238;52.278;21.056;2023-04-25T07:29:30;15.10;;;10.60;;
67352;SDS011;54238;52.278;21.056;2023-04-25T07:32:06;12.30;;;9.90;;
67352;SDS011;54238;52.278;21.056;2023-04-25T07:34:37;13.80;;;9.10;;
67352;SDS011;54238;52.278;21.056;2023-04-25T07:37:08;9.40;;;7.90;;
67352;SDS011;54238;52.278;21.056;2023-04-25T07:39:36;8.70;;;7.40;;
67352;SDS011;54238;52.278;21.056;2023-04-25T07:42:04;9.20;;;7.70;;
67352;SDS011;54238;52.278;21.056;2023-04-25T07:44:35;7.70;;;6.90;;
67352;SDS011;54238;52.278;21.056;2023-04-25T07:47:11;14.60;;;6.90;;
67352;SDS011;54238;52.278;21.056;2023-04-25T07:49:43;12.10;;;6.70;;
67352;SDS011;54238;52.278;21.056;2023-04-25T07:52:12;8.60;;;7.40;;
67352;SDS011;54238;52.278;21.056;2023-04-25T07:54:39;8.60;;;7.80;;
67352;SDS011;54238;52.278;21.056;2023-04-25T07:57:10;7.40;;;6.30;;
67352;SDS011;54238;52.278;21.056;2023-04-25T07:59:40;8.70;;;7.80;;
67352;SDS011;54238;52.278;21.056;2023-04-25T08:02:10;7.50;;;6.80;;
67352;SDS011;54238;52.278;21.056;2023-04-25T08:04:38;10.70;;;8.90;;
67352;SDS011;54238;52.278;21.056;2023-04-25T08:07:05;9.70;;;8.70;;
67352;SDS011;54238;52.278;21.056;2023-04-25T08:09:34;12.30;;;11.10;;
67352;SDS011;54238;52.278;21.056;2023-04-25T08:12:04;9.00;;;8.10;;
67352;SDS011;54238;52.278;21.056;2023-04-25T08:14:37;11.90;;;10.40;;
67352;SDS011;54238;52.278;21.056;2023-04-25T08:17:07;7.80;;;7.00;;
67352;SDS011;54238;52.278;21.056;2023-04-25T08:19:34;9.30;;;8.20;;
67352;SDS011;54238;52.278;21.056;2023-04-25T08:22:01;8.40;;;6.70;;
67352;SDS011;54238;52.278;21.056;2023-04-25T08:27:12;9.20;;;7.00;;
67352;SDS011;54238;52.278;21.056;2023-04-25T08:32:44;14.50;;;9.10;;
67352;SDS011;54238;52.278;21.056;2023-04-25T08:35:13;9.10;;;8.30;;
67352;SDS011;54238;52.278;21.056;2023-04-25T08:37:48;8.20;;;7.30;;
67352;SDS011;54238;52.278;21.056;2023-04-25T08:40:16;10.00;;;8.30;;
67352;SDS011;54238;52.278;21.056;2023-04-25T08:42:44;9.10;;;7.80;;
67352;SDS011;54238;52.278;21.056;2023-04-25T08:45:12;9.80;;;8.80;;
67352;SDS011;54238;52.278;21.056;2023-04-25T08:47:45;11.00;;;9.90;;
67352;SDS011;54238;52.278;21.056;2023-04-25T08:50:16;9.50;;;8.60;;
67352;SDS011;54238;52.278;21.056;2023-04-25T08:52:55;11.80;;;7.40;;
67352;SDS011;54238;52.278;21.056;2023-04-25T08:58:13;6.80;;;5.90;;
67352;SDS011;54238;52.278;21.056;2023-04-25T09:00:49;8.00;;;6.00;;
67352;SDS011;54238;52.278;21.056;2023-04-25T09:03:21;6.90;;;6.30;;
67352;SDS011;54238;52.278;21.056;2023-04-25T09:05:53;6.30;;;5.70;;
67352;SDS011;54238;52.278;21.056;2023-04-25T09:08:22;6.70;;;6.00;;
67352;SDS011;54238;52.278;21.056;2023-04-25T09:10:52;6.50;;;5.90;;
67352;SDS011;54238;52.278;21.056;2023-04-25T09:13:26;6.90;;;6.00;;
67352;SDS011;54238;52.278;21.056;2023-04-25T09:15:58;7.80;;;7.10;;
67352;SDS011;54238;52.278;21.056;2023-04-25T09:18:32;7.80;;;7.00;;
67352;SDS011;54238;52.278;21.056;2023-04-25T09:21:09;12.30;;;11.10;;
67352;SDS011;54238;52.278;21.056;2023-04-25T09:24:09;10.90;;;9.90;;
67352;SDS011;54238;52.278;21.056;2023-04-25T09:26:37;8.40;;;7.50;;
67352;SDS011;54238;52.278;21.056;2023-04-25T09:29:09;9.70;;;8.70;;
67352;SDS011;54238;52.278;21.056;2023-04-25T09:31:37;9.10;;;8.20;;
67352;SDS011;54238;52.278;21.056;2023-04-25T09:34:05;8.00;;;7.20;;
67352;SDS011;54238;52.278;21.056;2023-04-25T09:36:45;8.70;;;7.90;;
67352;SDS011;54238;52.278;21.056;2023-04-25T09:39:17;8.60;;;7.70;;
67352;SDS011;54238;52.278;21.056;2023-04-25T09:41:46;9.00;;;7.90;;
67352;SDS011;54238;52.278;21.056;2023-04-25T09:44:25;8.40;;;7.20;;
67352;SDS011;54238;52.278;21.056;2023-04-25T09:46:54;8.90;;;7.20;;
67352;SDS011;54238;52.278;21.056;2023-04-25T09:49:22;9.00;;;8.10;;
67352;SDS011;54238;52.278;21.056;2023-04-25T09:51:59;7.20;;;6.50;;
67352;SDS011;54238;52.278;21.056;2023-04-25T09:54:28;8.20;;;7.40;;
67352;SDS011;54238;52.278;21.056;2023-04-25T09:57:13;9.00;;;7.60;;
67352;SDS011;54238;52.278;21.056;2023-04-25T09:59:51;7.70;;;6.90;;
67352;SDS011;54238;52.278;21.056;2023-04-25T10:02:35;9.10;;;7.90;;
67352;SDS011;54238;52.278;21.056;2023-04-25T10:05:08;12.00;;;8.00;;
67352;SDS011;54238;52.278;21.056;2023-04-25T10:07:38;7.80;;;7.10;;
67352;SDS011;54238;52.278;21.056;2023-04-25T10:10:07;11.60;;;8.20;;
67352;SDS011;54238;52.278;21.056;2023-04-25T10:12:37;11.90;;;8.30;;
67352;SDS011;54238;52.278;21.056;2023-04-25T10:15:19;8.20;;;7.40;;
67352;SDS011;54238;52.278;21.056;2023-04-25T10:20:49;10.10;;;8.80;;
67352;SDS011;54238;52.278;21.056;2023-04-25T10:23:23;10.00;;;7.90;;
67352;SDS011;54238;52.278;21.056;2023-04-25T10:25:51;10.00;;;8.40;;
67352;SDS011;54238;52.278;21.056;2023-04-25T10:28:26;11.10;;;8.70;;
67352;SDS011;54238;52.278;21.056;2023-04-25T10:31:03;10.80;;;9.70;;
67352;SDS011;54238;52.278;21.056;2023-04-25T10:33:36;12.20;;;9.80;;
67352;SDS011;54238;52.278;21.056;2023-04-25T10:36:14;10.70;;;9.60;;
67352;SDS011;54238;52.278;21.056;2023-04-25T10:38:45;10.40;;;9.40;;
67352;SDS011;54238;52.278;21.056;2023-04-25T10:41:21;11.90;;;10.70;;
67352;SDS011;54238;52.278;21.056;2023-04-25T10:44:01;13.20;;;11.90;;
67352;SDS011;54238;52.278;21.056;2023-04-25T10:46:35;14.80;;;13.20;;
67352;SDS011;54238;52.278;21.056;2023-04-25T10:49:03;14.10;;;12.10;;
67352;SDS011;54238;52.278;21.056;2023-04-25T10:51:32;16.40;;;14.60;;
67352;SDS011;54238;52.278;21.056;2023-04-25T10:54:07;13.30;;;11.90;;
67352;SDS011;54238;52.278;21.056;2023-04-25T10:56:44;12.10;;;10.40;;
67352;SDS011;54238;52.278;21.056;2023-04-25T10:59:16;17.00;;;12.90;;
67352;SDS011;54238;52.278;21.056;2023-04-25T11:01:49;12.30;;;10.00;;
67352;SDS011;54238;52.278;21.056;2023-04-25T11:04:28;12.70;;;11.40;;
67352;SDS011;54238;52.278;21.056;2023-04-25T11:07:10;13.40;;;12.10;;
67352;SDS011;54238;52.278;21.056;2023-04-25T11:09:45;14.20;;;12.70;;
67352;SDS011;54238;52.278;21.056;2023-04-25T11:12:12;15.70;;;12.80;;
67352;SDS011;54238;52.278;21.056;2023-04-25T11:14:43;11.30;;;9.00;;
67352;SDS011;54238;52.278;21.056;2023-04-25T11:17:13;11.30;;;10.20;;
67352;SDS011;54238;52.278;21.056;2023-04-25T11:19:40;11.10;;;9.70;;
67352;SDS011;54238;52.278;21.056;2023-04-25T11:22:12;12.60;;;10.00;;
67352;SDS011;54238;52.278;21.056;2023-04-25T11:24:42;9.10;;;8.20;;
67352;SDS011;54238;52.278;21.056;2023-04-25T11:27:25;12.00;;;10.10;;
67352;SDS011;54238;52.278;21.056;2023-04-25T11:29:52;11.50;;;8.80;;
67352;SDS011;54238;52.278;21.056;2023-04-25T11:32:28;12.20;;;8.80;;
67352;SDS011;54238;52.278;21.056;2023-04-25T11:34:55;16.50;;;9.70;;
67352;SDS011;54238;52.278;21.056;2023-04-25T11:37:24;8.50;;;7.70;;
67352;SDS011;54238;52.278;21.056;2023-04-25T11:39:51;12.30;;;7.00;;
67352;SDS011;54238;52.278;21.056;2023-04-25T11:42:21;10.10;;;8.70;;
67352;SDS011;54238;52.278;21.056;2023-04-25T11:44:48;8.40;;;7.60;;
67352;SDS011;54238;52.278;21.056;2023-04-25T11:47:15;7.80;;;5.90;;
67352;SDS011;54238;52.278;21.056;2023-04-25T11:49:47;5.80;;;5.30;;
67352;SDS011;54238;52.278;21.056;2023-04-25T11:52:16;7.50;;;6.10;;
67352;SDS011;54238;52.278;21.056;2023-04-25T11:54:45;9.40;;;4.70;;
67352;SDS011;54238;52.278;21.056;2023-04-25T11:57:13;5.90;;;4.60;;
67352;SDS011;54238;52.278;21.056;2023-04-25T11:59:43;5.40;;;4.90;;
67352;SDS011;54238;52.278;21.056;2023-04-25T12:02:25;6.50;;;5.80;;
67352;SDS011;54238;52.278;21.056;2023-04-25T12:04:59;4.80;;;4.30;;
67352;SDS011;54238;52.278;21.056;2023-04-25T12:07:29;9.90;;;6.00;;
67352;SDS011;54238;52.278;21.056;2023-04-25T12:09:59;8.90;;;6.80;;
67352;SDS011;54238;52.278;21.056;2023-04-25T12:12:27;8.40;;;7.60;;
67352;SDS011;54238;52.278;21.056;2023-04-25T12:15:11;7.90;;;7.20;;
67352;SDS011;54238;52.278;21.056;2023-04-25T12:17:46;8.80;;;7.20;;
67352;SDS011;54238;52.278;21.056;2023-04-25T12:20:19;7.60;;;6.80;;
67352;SDS011;54238;52.278;21.056;2023-04-25T12:22:52;8.00;;;7.20;;
67352;SDS011;54238;52.278;21.056;2023-04-25T12:25:42;8.40;;;7.60;;
67352;SDS011;54238;52.278;21.056;2023-04-25T12:28:20;9.40;;;7.60;;
67352;SDS011;54238;52.278;21.056;2023-04-25T12:33:29;7.00;;;6.30;;
67352;SDS011;54238;52.278;21.056;2023-04-25T12:36:11;6.60;;;6.00;;
67352;SDS011;54238;52.278;21.056;2023-04-25T12:38:45;7.40;;;6.60;;
67352;SDS011;54238;52.278;21.056;2023-04-25T12:41:12;6.60;;;5.70;;
67352;SDS011;54238;52.278;21.056;2023-04-25T12:43:43;8.80;;;6.30;;
67352;SDS011;54238;52.278;21.056;2023-04-25T12:46:13;8.20;;;6.90;;
67352;SDS011;54238;52.278;21.056;2023-04-25T12:48:40;8.90;;;5.00;;
67352;SDS011;54238;52.278;21.056;2023-04-25T12:51:10;7.50;;;5.60;;
67352;SDS011;54238;52.278;21.056;2023-04-25T12:53:39;6.60;;;4.60;;
67352;SDS011;54238;52.278;21.056;2023-04-25T12:56:09;5.20;;;4.80;;
67352;SDS011;54238;52.278;21.056;2023-04-25T12:58:37;6.30;;;5.10;;
67352;SDS011;54238;52.278;21.056;2023-04-25T13:01:07;5.10;;;3.60;;
67352;SDS011;54238;52.278;21.056;2023-04-25T13:03:39;6.10;;;4.10;;
67352;SDS011;54238;52.278;21.056;2023-04-25T13:06:12;7.00;;;4.40;;
67352;SDS011;54238;52.278;21.056;2023-04-25T13:08:41;5.50;;;4.10;;
67352;SDS011;54238;52.278;21.056;2023-04-25T13:11:12;5.60;;;4.90;;
67352;SDS011;54238;52.278;21.056;2023-04-25T13:13:39;7.50;;;3.80;;
67352;SDS011;54238;52.278;21.056;2023-04-25T13:16:11;8.00;;;4.00;;
67352;SDS011;54238;52.278;21.056;2023-04-25T13:18:41;8.60;;;4.30;;
67352;SDS011;54238;52.278;21.056;2023-04-25T13:21:11;8.40;;;4.70;;
67352;SDS011;54238;52.278;21.056;2023-04-25T13:23:40;6.20;;;3.70;;
67352;SDS011;54238;52.278;21.056;2023-04-25T13:26:12;5.80;;;4.60;;
67352;SDS011;54238;52.278;21.056;2023-04-25T13:28:39;7.50;;;3.50;;
67352;SDS011;54238;52.278;21.056;2023-04-25T13:31:13;8.50;;;4.50;;
67352;SDS011;54238;52.278;21.056;2023-04-25T13:33:46;5.90;;;3.40;;
67352;SDS011;54238;52.278;21.056;2023-04-25T13:36:13;4.60;;;3.50;;
67352;SDS011;54238;52.278;21.056;2023-04-25T13:38:41;4.00;;;3.40;;
67352;SDS011;54238;52.278;21.056;2023-04-25T13:41:13;3.60;;;2.80;;
67352;SDS011;54238;52.278;21.056;2023-04-25T13:43:46;3.80;;;2.80;;
67352;SDS011;54238;52.278;21.056;2023-04-25T13:46:16;3.80;;;2.70;;
67352;SDS011;54238;52.278;21.056;2023-04-25T13:48:43;3.60;;;3.00;;
67352;SDS011;54238;52.278;21.056;2023-04-25T13:51:13;3.60;;;2.00;;
67352;SDS011;54238;52.278;21.056;2023-04-25T13:53:44;4.40;;;3.30;;
67352;SDS011;54238;52.278;21.056;2023-04-25T13:56:14;5.20;;;2.80;;
67352;SDS011;54238;52.278;21.056;2023-04-25T13:58:44;3.50;;;2.70;;
67352;SDS011;54238;52.278;21.056;2023-04-25T14:01:11;4.10;;;2.80;;
67352;SDS011;54238;52.278;21.056;2023-04-25T14:03:40;2.80;;;2.40;;
67352;SDS011;54238;52.278;21.056;2023-04-25T14:06:12;4.00;;;2.50;;
67352;SDS011;54238;52.278;21.056;2023-04-25T14:08:42;3.60;;;2.40;;
67352;SDS011;54238;52.278;21.056;2023-04-25T14:11:09;3.60;;;2.80;;
67352;SDS011;54238;52.278;21.056;2023-04-25T14:13:41;4.80;;;2.90;;
67352;SDS011;54238;52.278;21.056;2023-04-25T14:16:08;2.90;;;2.30;;
67352;SDS011;54238;52.278;21.056;2023-04-25T14:18:40;5.00;;;3.70;;
67352;SDS011;54238;52.278;21.056;2023-04-25T14:21:07;6.90;;;3.50;;
67352;SDS011;54238;52.278;21.056;2023-04-25T14:23:38;4.20;;;3.00;;
67352;SDS011;54238;52.278;21.056;2023-04-25T14:26:06;3.80;;;3.30;;
67352;SDS011;54238;52.278;21.056;2023-04-25T14:28:33;4.20;;;3.30;;
67352;SDS011;54238;52.278;21.056;2023-04-25T14:31:00;3.60;;;3.20;;
67352;SDS011;54238;52.278;21.056;2023-04-25T14:33:29;5.00;;;3.20;;
67352;SDS011;54238;52.278;21.056;2023-04-25T14:36:01;5.50;;;3.40;;
67352;SDS011;54238;52.278;21.056;2023-04-25T14:38:30;5.50;;;4.20;;
67352;SDS011;54238;52.278;21.056;2023-04-25T14:41:00;6.50;;;3.50;;
67352;SDS011;54238;52.278;21.056;2023-04-25T14:43:30;6.80;;;3.60;;
67352;SDS011;54238;52.278;21.056;2023-04-25T14:46:03;3.50;;;3.00;;
67352;SDS011;54238;52.278;21.056;2023-04-25T14:48:34;4.20;;;3.70;;
67352;SDS011;54238;52.278;21.056;2023-04-25T14:51:06;8.40;;;3.70;;
67352;SDS011;54238;52.278;21.056;2023-04-25T14:53:35;7.50;;;3.90;;
67352;SDS011;54238;52.278;21.056;2023-04-25T14:56:07;7.00;;;4.20;;
67352;SDS011;54238;52.278;21.056;2023-04-25T14:58:39;5.60;;;4.00;;
67352;SDS011;54238;52.278;21.056;2023-04-25T15:01:09;6.70;;;4.10;;
67352;SDS011;54238;52.278;21.056;2023-04-25T15:03:40;5.90;;;4.20;;